Accueil
Images satellite Prévisions 15 joursClimatMétéo marine Cyclones Foudre AéroportsFAQ Actualités A propos
Météo : Europe Afrique Amérique du Nord Amérique du Sud Asie Australie-Océanie Autres
Langues Contact

Bauru, São Paulo, Brésil

latitude: 22-19S, longitude: 049-04W, altitude: 590 m


METAR: SBBU 250300Z 27008KT 8000 BKN003 OVC005 15/15 Q1018
short-TAF: périmé (55701 heures)
long-TAF: périmé (21045 heures)

Heure: 00:38 (03:38 UTC)

Observation

Le bulletin a été fait il y a 38 minutes, à 03:00 UTC  
Vent 08 kt de ouest
Température 15°C
Humidité 100%
Pression 1018 hPa
Visibilité 8000 m
Nuages fragmentés à une hauteur de 300 ft
Ciel couvert à une hauteur de 500 ft

Changer d'unités
Les informations qui figurent sur ce site font l'objet d'une clause de non-responsabilité
Météo : Europe Afrique Amérique du Nord Amérique du Sud Asie Australie-Océanie Autres
Images satellite Prévisions 15 joursClimatMétéo marine Cyclones Foudre AéroportsFAQ Langues Contact Actualités A propos